sensor_id;sensor_type;location;lat;lon;timestamp;P1;durP1;ratioP1;P2;durP2;ratioP2
5052;SDS011;2545;50.892;5.740;2022-09-12T00:01:55;11.30;;;8.90;;
5052;SDS011;2545;50.892;5.740;2022-09-12T00:04:20;12.40;;;9.10;;
5052;SDS011;2545;50.892;5.740;2022-09-12T00:06:46;21.90;;;9.07;;
5052;SDS011;2545;50.892;5.740;2022-09-12T00:09:11;14.57;;;9.73;;
5052;SDS011;2545;50.892;5.740;2022-09-12T00:11:38;13.80;;;9.60;;
5052;SDS011;2545;50.892;5.740;2022-09-12T00:14:05;18.80;;;10.27;;
5052;SDS011;2545;50.892;5.740;2022-09-12T00:16:32;16.13;;;8.43;;
5052;SDS011;2545;50.892;5.740;2022-09-12T00:18:59;19.20;;;9.30;;
5052;SDS011;2545;50.892;5.740;2022-09-12T00:21:25;18.13;;;9.60;;
5052;SDS011;2545;50.892;5.740;2022-09-12T00:23:50;15.00;;;10.20;;
5052;SDS011;2545;50.892;5.740;2022-09-12T00:26:16;19.80;;;11.03;;
5052;SDS011;2545;50.892;5.740;2022-09-12T00:28:42;18.00;;;9.57;;
5052;SDS011;2545;50.892;5.740;2022-09-12T00:31:10;20.87;;;9.87;;
5052;SDS011;2545;50.892;5.740;2022-09-12T00:33:37;18.17;;;10.20;;
5052;SDS011;2545;50.892;5.740;2022-09-12T00:36:05;14.17;;;9.93;;
5052;SDS011;2545;50.892;5.740;2022-09-12T00:38:35;13.97;;;10.00;;
5052;SDS011;2545;50.892;5.740;2022-09-12T00:41:03;12.40;;;9.30;;
5052;SDS011;2545;50.892;5.740;2022-09-12T00:45:55;21.07;;;11.50;;
5052;SDS011;2545;50.892;5.740;2022-09-12T00:48:23;12.10;;;9.90;;
5052;SDS011;2545;50.892;5.740;2022-09-12T00:50:56;16.70;;;10.10;;
5052;SDS011;2545;50.892;5.740;2022-09-12T00:53:22;17.50;;;10.40;;
5052;SDS011;2545;50.892;5.740;2022-09-12T00:55:48;14.53;;;9.80;;
5052;SDS011;2545;50.892;5.740;2022-09-12T00:58:19;19.83;;;10.60;;
5052;SDS011;2545;50.892;5.740;2022-09-12T01:00:47;14.00;;;10.40;;
5052;SDS011;2545;50.892;5.740;2022-09-12T01:03:13;15.57;;;11.30;;
5052;SDS011;2545;50.892;5.740;2022-09-12T01:05:43;13.20;;;9.50;;
5052;SDS011;2545;50.892;5.740;2022-09-12T01:08:16;12.40;;;8.57;;
5052;SDS011;2545;50.892;5.740;2022-09-12T01:10:42;14.87;;;9.00;;
5052;SDS011;2545;50.892;5.740;2022-09-12T01:13:08;13.60;;;9.80;;
5052;SDS011;2545;50.892;5.740;2022-09-12T01:15:38;13.00;;;9.53;;
5052;SDS011;2545;50.892;5.740;2022-09-12T01:29:31;16.10;;;10.97;;
5052;SDS011;2545;50.892;5.740;2022-09-12T01:34:48;22.67;;;12.73;;
5052;SDS011;2545;50.892;5.740;2022-09-12T01:40:02;14.50;;;10.40;;
5052;SDS011;2545;50.892;5.740;2022-09-12T01:42:48;17.40;;;11.10;;
5052;SDS011;2545;50.892;5.740;2022-09-12T01:47:53;14.40;;;10.47;;
5052;SDS011;2545;50.892;5.740;2022-09-12T01:50:26;13.80;;;11.37;;
5052;SDS011;2545;50.892;5.740;2022-09-12T01:52:59;17.17;;;10.80;;
5052;SDS011;2545;50.892;5.740;2022-09-12T01:55:30;15.60;;;8.37;;
5052;SDS011;2545;50.892;5.740;2022-09-12T01:57:59;20.93;;;10.03;;
5052;SDS011;2545;50.892;5.740;2022-09-12T02:00:31;13.07;;;9.50;;
5052;SDS011;2545;50.892;5.740;2022-09-12T02:03:01;14.47;;;9.33;;
5052;SDS011;2545;50.892;5.740;2022-09-12T02:05:49;23.90;;;10.20;;
5052;SDS011;2545;50.892;5.740;2022-09-12T02:08:24;13.87;;;9.67;;
5052;SDS011;2545;50.892;5.740;2022-09-12T02:10:56;13.83;;;10.17;;
5052;SDS011;2545;50.892;5.740;2022-09-12T02:13:34;14.53;;;10.37;;
5052;SDS011;2545;50.892;5.740;2022-09-12T02:16:07;14.23;;;10.87;;
5052;SDS011;2545;50.892;5.740;2022-09-12T02:18:36;18.43;;;11.47;;
5052;SDS011;2545;50.892;5.740;2022-09-12T02:21:04;16.53;;;10.10;;
5052;SDS011;2545;50.892;5.740;2022-09-12T02:23:30;13.07;;;9.30;;
5052;SDS011;2545;50.892;5.740;2022-09-12T02:25:59;20.80;;;12.27;;
5052;SDS011;2545;50.892;5.740;2022-09-12T02:28:29;13.10;;;9.67;;
5052;SDS011;2545;50.892;5.740;2022-09-12T02:31:07;13.90;;;10.13;;
5052;SDS011;2545;50.892;5.740;2022-09-12T02:33:46;15.90;;;11.00;;
5052;SDS011;2545;50.892;5.740;2022-09-12T02:36:26;16.27;;;10.07;;
5052;SDS011;2545;50.892;5.740;2022-09-12T02:39:11;19.93;;;12.60;;
5052;SDS011;2545;50.892;5.740;2022-09-12T02:41:36;12.70;;;9.53;;
5052;SDS011;2545;50.892;5.740;2022-09-12T02:44:02;21.80;;;11.17;;
5052;SDS011;2545;50.892;5.740;2022-09-12T02:46:31;23.87;;;11.50;;
5052;SDS011;2545;50.892;5.740;2022-09-12T02:49:02;20.77;;;12.60;;
5052;SDS011;2545;50.892;5.740;2022-09-12T02:51:27;16.10;;;10.77;;
5052;SDS011;2545;50.892;5.740;2022-09-12T02:53:53;15.10;;;11.53;;
5052;SDS011;2545;50.892;5.740;2022-09-12T02:56:23;26.40;;;12.07;;
5052;SDS011;2545;50.892;5.740;2022-09-12T02:58:53;21.20;;;13.07;;
5052;SDS011;2545;50.892;5.740;2022-09-12T03:04:44;22.17;;;12.40;;
5052;SDS011;2545;50.892;5.740;2022-09-12T03:10:09;24.93;;;13.97;;
5052;SDS011;2545;50.892;5.740;2022-09-12T03:12:52;20.13;;;13.80;;
5052;SDS011;2545;50.892;5.740;2022-09-12T03:18:58;17.50;;;12.73;;
5052;SDS011;2545;50.892;5.740;2022-09-12T03:21:28;19.00;;;12.87;;
5052;SDS011;2545;50.892;5.740;2022-09-12T03:24:12;24.93;;;14.00;;
5052;SDS011;2545;50.892;5.740;2022-09-12T03:29:33;23.40;;;14.00;;
5052;SDS011;2545;50.892;5.740;2022-09-12T03:32:01;18.60;;;13.63;;
5052;SDS011;2545;50.892;5.740;2022-09-12T03:34:26;22.53;;;13.60;;
5052;SDS011;2545;50.892;5.740;2022-09-12T03:36:52;37.63;;;14.80;;
5052;SDS011;2545;50.892;5.740;2022-09-12T03:39:22;27.67;;;15.70;;
5052;SDS011;2545;50.892;5.740;2022-09-12T03:41:52;25.30;;;13.40;;
5052;SDS011;2545;50.892;5.740;2022-09-12T03:44:18;30.60;;;14.33;;
5052;SDS011;2545;50.892;5.740;2022-09-12T03:46:44;24.30;;;14.77;;
5052;SDS011;2545;50.892;5.740;2022-09-12T03:49:09;24.90;;;15.60;;
5052;SDS011;2545;50.892;5.740;2022-09-12T03:51:35;28.43;;;15.10;;
5052;SDS011;2545;50.892;5.740;2022-09-12T03:54:01;29.00;;;16.13;;
5052;SDS011;2545;50.892;5.740;2022-09-12T03:56:26;21.57;;;14.90;;
5052;SDS011;2545;50.892;5.740;2022-09-12T03:58:52;24.60;;;16.30;;
5052;SDS011;2545;50.892;5.740;2022-09-12T04:01:18;29.57;;;17.90;;
5052;SDS011;2545;50.892;5.740;2022-09-12T04:03:44;26.23;;;16.00;;
5052;SDS011;2545;50.892;5.740;2022-09-12T04:06:13;29.10;;;14.03;;
5052;SDS011;2545;50.892;5.740;2022-09-12T04:08:41;30.27;;;17.13;;
5052;SDS011;2545;50.892;5.740;2022-09-12T04:11:08;26.70;;;15.07;;
5052;SDS011;2545;50.892;5.740;2022-09-12T04:13:38;27.20;;;15.20;;
5052;SDS011;2545;50.892;5.740;2022-09-12T04:16:05;30.37;;;16.07;;
5052;SDS011;2545;50.892;5.740;2022-09-12T04:18:31;29.73;;;17.30;;
5052;SDS011;2545;50.892;5.740;2022-09-12T04:20:57;29.07;;;17.77;;
5052;SDS011;2545;50.892;5.740;2022-09-12T04:23:23;23.80;;;15.83;;
5052;SDS011;2545;50.892;5.740;2022-09-12T04:25:52;27.87;;;17.30;;
5052;SDS011;2545;50.892;5.740;2022-09-12T04:28:21;26.20;;;15.87;;
5052;SDS011;2545;50.892;5.740;2022-09-12T04:30:48;28.40;;;18.00;;
5052;SDS011;2545;50.892;5.740;2022-09-12T04:33:13;34.07;;;17.40;;
5052;SDS011;2545;50.892;5.740;2022-09-12T04:35:39;28.03;;;16.47;;
5052;SDS011;2545;50.892;5.740;2022-09-12T04:38:05;27.83;;;16.63;;
5052;SDS011;2545;50.892;5.740;2022-09-12T04:40:30;35.30;;;18.53;;
5052;SDS011;2545;50.892;5.740;2022-09-12T04:42:57;28.10;;;15.70;;
5052;SDS011;2545;50.892;5.740;2022-09-12T04:45:22;26.60;;;17.40;;
5052;SDS011;2545;50.892;5.740;2022-09-12T04:47:48;27.53;;;18.50;;
5052;SDS011;2545;50.892;5.740;2022-09-12T04:50:13;33.50;;;18.70;;
5052;SDS011;2545;50.892;5.740;2022-09-12T04:52:39;30.10;;;18.20;;
5052;SDS011;2545;50.892;5.740;2022-09-12T04:55:05;32.63;;;18.90;;
5052;SDS011;2545;50.892;5.740;2022-09-12T04:57:31;34.80;;;17.30;;
5052;SDS011;2545;50.892;5.740;2022-09-12T04:59:57;30.40;;;17.77;;
5052;SDS011;2545;50.892;5.740;2022-09-12T05:02:23;35.10;;;19.23;;
5052;SDS011;2545;50.892;5.740;2022-09-12T05:04:48;30.27;;;18.30;;
5052;SDS011;2545;50.892;5.740;2022-09-12T05:07:14;27.37;;;15.50;;
5052;SDS011;2545;50.892;5.740;2022-09-12T05:09:39;34.13;;;16.30;;
5052;SDS011;2545;50.892;5.740;2022-09-12T05:12:05;32.10;;;15.33;;
5052;SDS011;2545;50.892;5.740;2022-09-12T05:14:31;25.37;;;15.80;;
5052;SDS011;2545;50.892;5.740;2022-09-12T05:16:57;29.37;;;16.37;;
5052;SDS011;2545;50.892;5.740;2022-09-12T05:19:25;26.67;;;16.70;;
5052;SDS011;2545;50.892;5.740;2022-09-12T05:21:51;30.47;;;18.40;;
5052;SDS011;2545;50.892;5.740;2022-09-12T05:24:16;25.37;;;16.00;;
5052;SDS011;2545;50.892;5.740;2022-09-12T05:26:41;30.00;;;16.77;;
5052;SDS011;2545;50.892;5.740;2022-09-12T05:29:07;31.60;;;17.80;;
5052;SDS011;2545;50.892;5.740;2022-09-12T05:31:32;32.60;;;17.80;;
5052;SDS011;2545;50.892;5.740;2022-09-12T05:33:58;28.63;;;17.33;;
5052;SDS011;2545;50.892;5.740;2022-09-12T05:36:25;30.70;;;18.03;;
5052;SDS011;2545;50.892;5.740;2022-09-12T05:38:52;25.23;;;18.23;;
5052;SDS011;2545;50.892;5.740;2022-09-12T05:41:21;30.37;;;17.23;;
5052;SDS011;2545;50.892;5.740;2022-09-12T05:43:52;27.57;;;16.17;;
5052;SDS011;2545;50.892;5.740;2022-09-12T05:46:20;24.40;;;16.90;;
5052;SDS011;2545;50.892;5.740;2022-09-12T05:48:46;28.57;;;16.10;;
5052;SDS011;2545;50.892;5.740;2022-09-12T05:51:19;33.43;;;19.40;;
5052;SDS011;2545;50.892;5.740;2022-09-12T05:53:48;29.00;;;19.27;;
5052;SDS011;2545;50.892;5.740;2022-09-12T05:56:17;35.33;;;17.77;;
5052;SDS011;2545;50.892;5.740;2022-09-12T05:58:45;29.70;;;18.60;;
5052;SDS011;2545;50.892;5.740;2022-09-12T06:01:13;35.57;;;18.37;;
5052;SDS011;2545;50.892;5.740;2022-09-12T06:03:41;29.63;;;18.00;;
5052;SDS011;2545;50.892;5.740;2022-09-12T06:06:11;32.93;;;17.47;;
5052;SDS011;2545;50.892;5.740;2022-09-12T06:08:37;25.87;;;18.10;;
5052;SDS011;2545;50.892;5.740;2022-09-12T06:11:04;28.70;;;19.50;;
5052;SDS011;2545;50.892;5.740;2022-09-12T06:13:31;28.43;;;18.70;;
5052;SDS011;2545;50.892;5.740;2022-09-12T06:16:02;33.60;;;20.40;;
5052;SDS011;2545;50.892;5.740;2022-09-12T06:18:31;31.20;;;18.00;;
5052;SDS011;2545;50.892;5.740;2022-09-12T06:20:56;29.27;;;17.37;;
5052;SDS011;2545;50.892;5.740;2022-09-12T06:23:25;31.17;;;19.20;;
5052;SDS011;2545;50.892;5.740;2022-09-12T06:25:51;27.67;;;18.63;;
5052;SDS011;2545;50.892;5.740;2022-09-12T06:28:16;33.20;;;18.60;;
5052;SDS011;2545;50.892;5.740;2022-09-12T06:30:41;31.83;;;18.57;;
5052;SDS011;2545;50.892;5.740;2022-09-12T06:33:07;29.93;;;18.17;;
5052;SDS011;2545;50.892;5.740;2022-09-12T06:35:36;26.97;;;18.60;;
5052;SDS011;2545;50.892;5.740;2022-09-12T06:38:02;27.87;;;18.37;;
5052;SDS011;2545;50.892;5.740;2022-09-12T06:40:27;29.47;;;18.50;;
5052;SDS011;2545;50.892;5.740;2022-09-12T06:42:53;25.17;;;16.27;;
5052;SDS011;2545;50.892;5.740;2022-09-12T06:45:19;24.37;;;16.87;;
5052;SDS011;2545;50.892;5.740;2022-09-12T06:47:44;28.93;;;17.53;;
5052;SDS011;2545;50.892;5.740;2022-09-12T06:50:10;24.60;;;15.93;;
5052;SDS011;2545;50.892;5.740;2022-09-12T06:52:35;21.50;;;15.00;;
5052;SDS011;2545;50.892;5.740;2022-09-12T06:55:01;24.13;;;15.90;;
5052;SDS011;2545;50.892;5.740;2022-09-12T06:57:26;29.70;;;16.23;;
5052;SDS011;2545;50.892;5.740;2022-09-12T06:59:54;25.13;;;16.10;;
5052;SDS011;2545;50.892;5.740;2022-09-12T07:02:19;25.20;;;15.10;;
5052;SDS011;2545;50.892;5.740;2022-09-12T07:04:45;25.03;;;15.83;;
5052;SDS011;2545;50.892;5.740;2022-09-12T07:07:11;27.60;;;16.00;;
5052;SDS011;2545;50.892;5.740;2022-09-12T07:09:36;25.17;;;16.23;;
5052;SDS011;2545;50.892;5.740;2022-09-12T07:12:01;23.23;;;14.37;;
5052;SDS011;2545;50.892;5.740;2022-09-12T07:14:28;25.07;;;16.07;;
5052;SDS011;2545;50.892;5.740;2022-09-12T07:16:53;26.23;;;15.53;;
5052;SDS011;2545;50.892;5.740;2022-09-12T07:19:19;32.57;;;16.50;;
5052;SDS011;2545;50.892;5.740;2022-09-12T07:21:44;25.00;;;16.40;;
5052;SDS011;2545;50.892;5.740;2022-09-12T07:24:09;30.53;;;17.50;;
5052;SDS011;2545;50.892;5.740;2022-09-12T07:26:35;27.73;;;15.50;;
5052;SDS011;2545;50.892;5.740;2022-09-12T07:29:01;30.00;;;18.20;;
5052;SDS011;2545;50.892;5.740;2022-09-12T07:31:27;24.60;;;16.60;;
5052;SDS011;2545;50.892;5.740;2022-09-12T07:33:53;28.10;;;15.87;;
5052;SDS011;2545;50.892;5.740;2022-09-12T07:36:19;30.40;;;16.67;;
5052;SDS011;2545;50.892;5.740;2022-09-12T07:38:46;28.20;;;16.83;;
5052;SDS011;2545;50.892;5.740;2022-09-12T07:41:21;26.63;;;16.77;;
5052;SDS011;2545;50.892;5.740;2022-09-12T07:43:52;27.33;;;17.60;;
5052;SDS011;2545;50.892;5.740;2022-09-12T07:46:18;25.20;;;16.30;;
5052;SDS011;2545;50.892;5.740;2022-09-12T07:48:48;25.87;;;15.13;;
5052;SDS011;2545;50.892;5.740;2022-09-12T07:51:13;27.27;;;17.27;;
5052;SDS011;2545;50.892;5.740;2022-09-12T07:53:39;22.90;;;15.43;;
5052;SDS011;2545;50.892;5.740;2022-09-12T07:56:06;24.27;;;14.60;;
5052;SDS011;2545;50.892;5.740;2022-09-12T07:58:33;29.30;;;14.87;;
5052;SDS011;2545;50.892;5.740;2022-09-12T08:01:03;27.13;;;16.77;;
5052;SDS011;2545;50.892;5.740;2022-09-12T08:03:30;25.17;;;15.83;;
5052;SDS011;2545;50.892;5.740;2022-09-12T08:06:01;25.30;;;17.53;;
5052;SDS011;2545;50.892;5.740;2022-09-12T08:08:30;27.93;;;17.00;;
5052;SDS011;2545;50.892;5.740;2022-09-12T08:10:56;25.00;;;16.67;;
5052;SDS011;2545;50.892;5.740;2022-09-12T08:13:23;32.90;;;16.17;;
5052;SDS011;2545;50.892;5.740;2022-09-12T08:15:49;24.93;;;16.43;;
5052;SDS011;2545;50.892;5.740;2022-09-12T08:18:14;23.60;;;15.77;;
5052;SDS011;2545;50.892;5.740;2022-09-12T08:20:40;24.30;;;17.10;;
5052;SDS011;2545;50.892;5.740;2022-09-12T08:23:05;23.50;;;15.70;;
5052;SDS011;2545;50.892;5.740;2022-09-12T08:25:31;24.30;;;15.50;;
5052;SDS011;2545;50.892;5.740;2022-09-12T08:27:58;21.73;;;15.53;;
5052;SDS011;2545;50.892;5.740;2022-09-12T08:30:25;24.40;;;14.63;;
5052;SDS011;2545;50.892;5.740;2022-09-12T08:32:50;26.13;;;15.30;;
5052;SDS011;2545;50.892;5.740;2022-09-12T08:35:16;20.87;;;14.83;;
5052;SDS011;2545;50.892;5.740;2022-09-12T08:37:41;23.63;;;14.63;;
5052;SDS011;2545;50.892;5.740;2022-09-12T08:40:07;22.07;;;14.87;;
5052;SDS011;2545;50.892;5.740;2022-09-12T08:42:45;27.50;;;15.90;;
5052;SDS011;2545;50.892;5.740;2022-09-12T08:45:34;21.70;;;14.43;;
5052;SDS011;2545;50.892;5.740;2022-09-12T08:48:06;24.27;;;14.00;;
5052;SDS011;2545;50.892;5.740;2022-09-12T08:50:34;22.80;;;12.90;;
5052;SDS011;2545;50.892;5.740;2022-09-12T08:53:03;20.80;;;12.73;;
5052;SDS011;2545;50.892;5.740;2022-09-12T08:55:40;21.00;;;13.20;;
5052;SDS011;2545;50.892;5.740;2022-09-12T08:58:15;15.40;;;11.60;;
5052;SDS011;2545;50.892;5.740;2022-09-12T09:03:15;16.33;;;10.67;;
5052;SDS011;2545;50.892;5.740;2022-09-12T09:06:15;19.23;;;10.27;;
5052;SDS011;2545;50.892;5.740;2022-09-12T09:08:46;15.50;;;9.97;;
5052;SDS011;2545;50.892;5.740;2022-09-12T09:14:46;11.40;;;8.37;;
5052;SDS011;2545;50.892;5.740;2022-09-12T09:17:19;17.93;;;8.57;;
5052;SDS011;2545;50.892;5.740;2022-09-12T09:22:58;18.33;;;9.30;;
5052;SDS011;2545;50.892;5.740;2022-09-12T09:30:55;9.03;;;6.77;;
5052;SDS011;2545;50.892;5.740;2022-09-12T09:33:21;9.53;;;7.43;;
5052;SDS011;2545;50.892;5.740;2022-09-12T09:39:19;10.63;;;6.83;;
5052;SDS011;2545;50.892;5.740;2022-09-12T09:44:45;6.00;;;5.10;;
5052;SDS011;2545;50.892;5.740;2022-09-12T09:47:12;11.53;;;5.90;;
5052;SDS011;2545;50.892;5.740;2022-09-12T09:49:38;15.07;;;6.77;;
5052;SDS011;2545;50.892;5.740;2022-09-12T09:52:05;11.57;;;6.60;;
5052;SDS011;2545;50.892;5.740;2022-09-12T09:54:40;7.80;;;5.50;;
5052;SDS011;2545;50.892;5.740;2022-09-12T10:03:06;6.23;;;4.20;;
5052;SDS011;2545;50.892;5.740;2022-09-12T10:05:50;13.10;;;5.13;;
5052;SDS011;2545;50.892;5.740;2022-09-12T10:08:24;7.50;;;4.67;;
5052;SDS011;2545;50.892;5.740;2022-09-12T10:10:59;9.13;;;5.67;;
5052;SDS011;2545;50.892;5.740;2022-09-12T10:13:41;10.00;;;3.87;;
5052;SDS011;2545;50.892;5.740;2022-09-12T10:16:22;7.37;;;3.50;;
5052;SDS011;2545;50.892;5.740;2022-09-12T10:18:49;7.97;;;3.80;;
5052;SDS011;2545;50.892;5.740;2022-09-12T10:21:21;5.50;;;4.00;;
5052;SDS011;2545;50.892;5.740;2022-09-12T10:24:13;4.93;;;3.43;;
5052;SDS011;2545;50.892;5.740;2022-09-12T10:27:35;7.13;;;2.73;;
5052;SDS011;2545;50.892;5.740;2022-09-12T10:29:54;8.20;;;3.17;;
5052;SDS011;2545;50.892;5.740;2022-09-12T10:32:28;14.70;;;2.97;;
5052;SDS011;2545;50.892;5.740;2022-09-12T10:35:05;12.73;;;3.50;;
5052;SDS011;2545;50.892;5.740;2022-09-12T10:37:41;6.80;;;3.20;;
5052;SDS011;2545;50.892;5.740;2022-09-12T10:40:23;3.20;;;2.60;;
5052;SDS011;2545;50.892;5.740;2022-09-12T10:42:52;4.87;;;2.70;;
5052;SDS011;2545;50.892;5.740;2022-09-12T10:45:20;13.40;;;3.10;;
5052;SDS011;2545;50.892;5.740;2022-09-12T10:47:48;5.43;;;2.50;;
5052;SDS011;2545;50.892;5.740;2022-09-12T10:50:18;5.57;;;3.00;;
5052;SDS011;2545;50.892;5.740;2022-09-12T10:52:47;2.70;;;2.50;;
5052;SDS011;2545;50.892;5.740;2022-09-12T10:55:13;4.00;;;3.10;;
5052;SDS011;2545;50.892;5.740;2022-09-12T11:00:26;6.30;;;3.00;;
5052;SDS011;2545;50.892;5.740;2022-09-12T11:05:52;4.17;;;2.90;;
5052;SDS011;2545;50.892;5.740;2022-09-12T11:11:40;5.53;;;2.97;;
5052;SDS011;2545;50.892;5.740;2022-09-12T11:14:27;5.50;;;3.13;;
5052;SDS011;2545;50.892;5.740;2022-09-12T11:17:12;3.57;;;3.13;;
5052;SDS011;2545;50.892;5.740;2022-09-12T11:19:46;4.57;;;2.83;;
5052;SDS011;2545;50.892;5.740;2022-09-12T11:25:11;4.40;;;3.00;;
5052;SDS011;2545;50.892;5.740;2022-09-12T11:27:54;4.70;;;2.60;;
5052;SDS011;2545;50.892;5.740;2022-09-12T11:31:35;4.80;;;2.87;;
5052;SDS011;2545;50.892;5.740;2022-09-12T11:33:51;6.27;;;2.30;;
5052;SDS011;2545;50.892;5.740;2022-09-12T11:36:36;3.27;;;2.97;;
5052;SDS011;2545;50.892;5.740;2022-09-12T11:41:35;3.20;;;2.10;;
5052;SDS011;2545;50.892;5.740;2022-09-12T11:46:39;10.00;;;4.00;;
5052;SDS011;2545;50.892;5.740;2022-09-12T11:54:36;6.50;;;2.95;;
5052;SDS011;2545;50.892;5.740;2022-09-12T11:59:53;4.53;;;2.28;;
5052;SDS011;2545;50.892;5.740;2022-09-12T12:02:27;2.53;;;2.20;;
5052;SDS011;2545;50.892;5.740;2022-09-12T12:07:51;2.07;;;1.87;;
5052;SDS011;2545;50.892;5.740;2022-09-12T12:10:23;2.40;;;2.20;;
5052;SDS011;2545;50.892;5.740;2022-09-12T12:12:52;2.30;;;2.10;;
5052;SDS011;2545;50.892;5.740;2022-09-12T12:15:19;3.47;;;2.10;;
5052;SDS011;2545;50.892;5.740;2022-09-12T12:17:58;2.20;;;2.00;;
5052;SDS011;2545;50.892;5.740;2022-09-12T12:20:26;2.28;;;2.08;;
5052;SDS011;2545;50.892;5.740;2022-09-12T12:22:52;1.95;;;1.83;;
5052;SDS011;2545;50.892;5.740;2022-09-12T12:27:52;3.10;;;2.35;;
5052;SDS011;2545;50.892;5.740;2022-09-12T12:37:59;2.55;;;1.80;;
5052;SDS011;2545;50.892;5.740;2022-09-12T12:40:26;2.05;;;1.85;;
5052;SDS011;2545;50.892;5.740;2022-09-12T12:42:57;1.70;;;1.60;;
5052;SDS011;2545;50.892;5.740;2022-09-12T12:47:50;2.33;;;1.73;;
5052;SDS011;2545;50.892;5.740;2022-09-12T12:52:48;1.80;;;1.70;;
5052;SDS011;2545;50.892;5.740;2022-09-12T12:55:26;3.30;;;2.28;;
5052;SDS011;2545;50.892;5.740;2022-09-12T12:57:56;2.80;;;1.92;;
5052;SDS011;2545;50.892;5.740;2022-09-12T13:00:36;1.88;;;1.70;;
5052;SDS011;2545;50.892;5.740;2022-09-12T13:05:37;2.97;;;1.42;;
5052;SDS011;2545;50.892;5.740;2022-09-12T13:08:27;2.40;;;1.85;;
5052;SDS011;2545;50.892;5.740;2022-09-12T13:11:05;7.03;;;2.05;;
5052;SDS011;2545;50.892;5.740;2022-09-12T13:13:37;1.67;;;1.50;;
5052;SDS011;2545;50.892;5.740;2022-09-12T13:16:03;2.35;;;2.15;;
5052;SDS011;2545;50.892;5.740;2022-09-12T13:18:40;2.20;;;2.00;;
5052;SDS011;2545;50.892;5.740;2022-09-12T13:21:13;2.30;;;1.63;;
5052;SDS011;2545;50.892;5.740;2022-09-12T13:23:43;1.90;;;1.80;;
5052;SDS011;2545;50.892;5.740;2022-09-12T13:26:23;3.60;;;1.98;;
5052;SDS011;2545;50.892;5.740;2022-09-12T13:28:49;2.13;;;1.83;;
5052;SDS011;2545;50.892;5.740;2022-09-12T13:31:33;4.13;;;1.92;;
5052;SDS011;2545;50.892;5.740;2022-09-12T13:33:59;3.17;;;1.90;;
5052;SDS011;2545;50.892;5.740;2022-09-12T13:45:20;8.50;;;2.20;;
5052;SDS011;2545;50.892;5.740;2022-09-12T13:47:47;4.35;;;2.38;;
5052;SDS011;2545;50.892;5.740;2022-09-12T13:50:20;3.50;;;2.58;;
5052;SDS011;2545;50.892;5.740;2022-09-12T13:52:52;4.23;;;2.47;;
5052;SDS011;2545;50.892;5.740;2022-09-12T13:55:26;9.40;;;2.30;;
5052;SDS011;2545;50.892;5.740;2022-09-12T13:57:56;2.60;;;2.30;;
5052;SDS011;2545;50.892;5.740;2022-09-12T14:00:27;2.43;;;1.93;;
5052;SDS011;2545;50.892;5.740;2022-09-12T14:02:55;3.57;;;2.53;;
5052;SDS011;2545;50.892;5.740;2022-09-12T14:05:40;3.90;;;2.37;;
5052;SDS011;2545;50.892;5.740;2022-09-12T14:08:09;4.40;;;2.60;;
5052;SDS011;2545;50.892;5.740;2022-09-12T14:10:38;4.63;;;2.20;;
5052;SDS011;2545;50.892;5.740;2022-09-12T14:13:17;8.90;;;2.00;;
5052;SDS011;2545;50.892;5.740;2022-09-12T14:15:46;2.20;;;2.00;;
5052;SDS011;2545;50.892;5.740;2022-09-12T14:18:20;4.30;;;2.55;;
5052;SDS011;2545;50.892;5.740;2022-09-12T14:20:47;5.82;;;2.10;;
5052;SDS011;2545;50.892;5.740;2022-09-12T14:25:54;3.78;;;2.03;;
5052;SDS011;2545;50.892;5.740;2022-09-12T14:28:23;1.98;;;1.70;;
5052;SDS011;2545;50.892;5.740;2022-09-12T14:30:59;2.22;;;1.80;;
5052;SDS011;2545;50.892;5.740;2022-09-12T14:33:25;5.78;;;2.28;;
5052;SDS011;2545;50.892;5.740;2022-09-12T14:35:51;3.25;;;2.00;;
5052;SDS011;2545;50.892;5.740;2022-09-12T14:38:36;14.82;;;2.33;;
5052;SDS011;2545;50.892;5.740;2022-09-12T14:41:07;4.15;;;2.28;;
5052;SDS011;2545;50.892;5.740;2022-09-12T14:43:35;4.65;;;2.17;;
5052;SDS011;2545;50.892;5.740;2022-09-12T14:46:07;3.22;;;2.13;;
5052;SDS011;2545;50.892;5.740;2022-09-12T14:48:45;3.50;;;2.00;;
5052;SDS011;2545;50.892;5.740;2022-09-12T14:51:26;3.92;;;2.10;;
5052;SDS011;2545;50.892;5.740;2022-09-12T14:53:55;3.05;;;1.90;;
5052;SDS011;2545;50.892;5.740;2022-09-12T14:56:35;3.28;;;1.77;;
5052;SDS011;2545;50.892;5.740;2022-09-12T15:04:47;3.30;;;1.52;;
5052;SDS011;2545;50.892;5.740;2022-09-12T15:07:29;4.50;;;1.73;;
5052;SDS011;2545;50.892;5.740;2022-09-12T15:13:41;2.92;;;1.88;;
5052;SDS011;2545;50.892;5.740;2022-09-12T15:15:53;2.53;;;1.85;;
5052;SDS011;2545;50.892;5.740;2022-09-12T15:18:20;3.90;;;1.92;;
5052;SDS011;2545;50.892;5.740;2022-09-12T15:20:48;4.10;;;1.65;;
5052;SDS011;2545;50.892;5.740;2022-09-12T15:26:05;4.40;;;2.47;;
5052;SDS011;2545;50.892;5.740;2022-09-12T15:28:31;2.38;;;1.40;;
5052;SDS011;2545;50.892;5.740;2022-09-12T15:31:00;7.13;;;1.67;;
5052;SDS011;2545;50.892;5.740;2022-09-12T15:33:30;5.07;;;1.60;;
5052;SDS011;2545;50.892;5.740;2022-09-12T15:35:55;2.97;;;1.80;;
5052;SDS011;2545;50.892;5.740;2022-09-12T15:38:20;4.57;;;2.13;;
5052;SDS011;2545;50.892;5.740;2022-09-12T15:40:48;5.28;;;1.92;;
5052;SDS011;2545;50.892;5.740;2022-09-12T15:43:16;3.40;;;1.20;;
5052;SDS011;2545;50.892;5.740;2022-09-12T15:45:42;2.03;;;1.38;;
5052;SDS011;2545;50.892;5.740;2022-09-12T15:48:08;3.60;;;1.52;;
5052;SDS011;2545;50.892;5.740;2022-09-12T15:50:34;1.88;;;1.58;;
5052;SDS011;2545;50.892;5.740;2022-09-12T15:53:00;2.42;;;1.38;;
5052;SDS011;2545;50.892;5.740;2022-09-12T15:55:30;1.85;;;1.20;;
5052;SDS011;2545;50.892;5.740;2022-09-12T15:57:59;1.48;;;1.20;;
5052;SDS011;2545;50.892;5.740;2022-09-12T16:00:24;3.38;;;1.40;;
5052;SDS011;2545;50.892;5.740;2022-09-12T16:02:50;1.70;;;1.20;;
5052;SDS011;2545;50.892;5.740;2022-09-12T16:05:21;1.70;;;1.60;;
5052;SDS011;2545;50.892;5.740;2022-09-12T16:07:49;2.40;;;1.30;;
5052;SDS011;2545;50.892;5.740;2022-09-12T16:10:19;2.88;;;1.42;;
5052;SDS011;2545;50.892;5.740;2022-09-12T16:12:46;1.45;;;1.30;;
5052;SDS011;2545;50.892;5.740;2022-09-12T16:15:12;3.22;;;1.40;;
5052;SDS011;2545;50.892;5.740;2022-09-12T16:17:40;3.50;;;1.20;;
5052;SDS011;2545;50.892;5.740;2022-09-12T16:20:06;2.45;;;1.33;;
5052;SDS011;2545;50.892;5.740;2022-09-12T16:22:31;2.08;;;1.40;;
5052;SDS011;2545;50.892;5.740;2022-09-12T16:24:57;3.22;;;1.20;;
5052;SDS011;2545;50.892;5.740;2022-09-12T16:27:22;1.77;;;1.30;;
5052;SDS011;2545;50.892;5.740;2022-09-12T16:29:47;2.42;;;1.40;;
5052;SDS011;2545;50.892;5.740;2022-09-12T16:32:12;4.43;;;1.60;;
5052;SDS011;2545;50.892;5.740;2022-09-12T16:34:38;5.35;;;1.48;;
5052;SDS011;2545;50.892;5.740;2022-09-12T16:37:03;2.40;;;1.50;;
5052;SDS011;2545;50.892;5.740;2022-09-12T16:39:29;4.93;;;1.35;;
5052;SDS011;2545;50.892;5.740;2022-09-12T16:41:54;4.63;;;1.90;;
5052;SDS011;2545;50.892;5.740;2022-09-12T16:44:20;2.85;;;1.63;;
5052;SDS011;2545;50.892;5.740;2022-09-12T16:46:45;4.10;;;1.58;;
5052;SDS011;2545;50.892;5.740;2022-09-12T16:49:10;3.03;;;1.60;;
5052;SDS011;2545;50.892;5.740;2022-09-12T16:51:36;1.83;;;1.08;;
5052;SDS011;2545;50.892;5.740;2022-09-12T16:54:02;5.10;;;1.60;;
5052;SDS011;2545;50.892;5.740;2022-09-12T16:56:27;2.22;;;1.45;;
5052;SDS011;2545;50.892;5.740;2022-09-12T16:58:53;1.77;;;1.33;;
5052;SDS011;2545;50.892;5.740;2022-09-12T17:01:20;1.40;;;1.20;;
5052;SDS011;2545;50.892;5.740;2022-09-12T17:03:51;1.70;;;1.40;;
5052;SDS011;2545;50.892;5.740;2022-09-12T17:06:17;2.88;;;1.25;;
5052;SDS011;2545;50.892;5.740;2022-09-12T17:08:45;1.83;;;1.40;;
5052;SDS011;2545;50.892;5.740;2022-09-12T17:11:16;1.75;;;1.33;;
5052;SDS011;2545;50.892;5.740;2022-09-12T17:13:50;1.65;;;1.33;;
5052;SDS011;2545;50.892;5.740;2022-09-12T17:16:20;4.38;;;1.50;;
5052;SDS011;2545;50.892;5.740;2022-09-12T17:18:46;2.75;;;1.70;;
5052;SDS011;2545;50.892;5.740;2022-09-12T17:21:12;3.15;;;1.70;;
5052;SDS011;2545;50.892;5.740;2022-09-12T17:23:38;5.15;;;1.70;;
5052;SDS011;2545;50.892;5.740;2022-09-12T17:26:04;2.50;;;1.70;;